sensor_id;sensor_type;location;lat;lon;timestamp;pressure;altitude;pressure_sealevel;temperature;humidity
70684;BME280;58263;48.146;11.440;2023-10-31T00:01:20;94246.28;;;11.23;88.77
70684;BME280;58263;48.146;11.440;2023-10-31T00:03:46;94240.91;;;11.23;88.98
70684;BME280;58263;48.146;11.440;2023-10-31T00:06:11;94251.38;;;11.19;87.73
70684;BME280;58263;48.146;11.440;2023-10-31T00:08:36;94243.88;;;11.11;88.38
70684;BME280;58263;48.146;11.440;2023-10-31T00:11:02;94238.50;;;11.11;87.91
70684;BME280;58263;48.146;11.440;2023-10-31T00:13:27;94233.69;;;11.08;88.10
70684;BME280;58263;48.146;11.440;2023-10-31T00:15:52;94242.00;;;11.01;87.70
70684;BME280;58263;48.146;11.440;2023-10-31T00:18:18;94242.00;;;11.01;87.93
70684;BME280;58263;48.146;11.440;2023-10-31T00:20:43;94245.75;;;11.00;87.21
70684;BME280;58263;48.146;11.440;2023-10-31T00:23:08;94245.78;;;10.95;87.00
70684;BME280;58263;48.146;11.440;2023-10-31T00:25:34;94252.50;;;10.92;87.29
70684;BME280;58263;48.146;11.440;2023-10-31T00:27:59;94249.53;;;10.94;87.19
70684;BME280;58263;48.146;11.440;2023-10-31T00:30:24;94254.63;;;10.90;87.08
70684;BME280;58263;48.146;11.440;2023-10-31T00:32:49;94259.19;;;10.90;86.83
70684;BME280;58263;48.146;11.440;2023-10-31T00:35:15;94265.13;;;10.87;87.37
70684;BME280;58263;48.146;11.440;2023-10-31T00:37:40;94260.53;;;10.87;86.92
70684;BME280;58263;48.146;11.440;2023-10-31T00:40:09;94250.09;;;10.80;87.22
70684;BME280;58263;48.146;11.440;2023-10-31T00:42:39;94255.44;;;10.80;86.79
70684;BME280;58263;48.146;11.440;2023-10-31T00:45:07;94261.63;;;10.76;87.69
70684;BME280;58263;48.146;11.440;2023-10-31T00:47:33;94256.00;;;10.77;87.58
70684;BME280;58263;48.146;11.440;2023-10-31T00:49:58;94254.38;;;10.76;87.57
70684;BME280;58263;48.146;11.440;2023-10-31T00:52:24;94250.34;;;10.69;87.42
70684;BME280;58263;48.146;11.440;2023-10-31T00:54:49;94249.00;;;10.66;87.34
70684;BME280;58263;48.146;11.440;2023-10-31T00:57:14;94254.38;;;10.66;87.61
70684;BME280;58263;48.146;11.440;2023-10-31T00:59:39;94261.34;;;10.62;87.33
70684;BME280;58263;48.146;11.440;2023-10-31T01:02:05;94257.56;;;10.58;87.56
70684;BME280;58263;48.146;11.440;2023-10-31T01:04:30;94261.63;;;10.55;87.73
70684;BME280;58263;48.146;11.440;2023-10-31T01:06:56;94258.41;;;10.58;88.12
70684;BME280;58263;48.146;11.440;2023-10-31T01:09:21;94258.13;;;10.55;87.57
70684;BME280;58263;48.146;11.440;2023-10-31T01:11:47;94260.00;;;10.54;88.21
70684;BME280;58263;48.146;11.440;2023-10-31T01:14:12;94264.81;;;10.52;88.44
70684;BME280;58263;48.146;11.440;2023-10-31T01:16:39;94264.03;;;10.52;88.80
70684;BME280;58263;48.146;11.440;2023-10-31T01:19:05;94273.41;;;10.54;88.73
70684;BME280;58263;48.146;11.440;2023-10-31T01:21:31;94274.22;;;10.55;88.19
70684;BME280;58263;48.146;11.440;2023-10-31T01:23:56;94272.59;;;10.54;88.45
70684;BME280;58263;48.146;11.440;2023-10-31T01:26:21;94280.63;;;10.54;88.55
70684;BME280;58263;48.146;11.440;2023-10-31T01:28:46;94273.41;;;10.54;88.80
70684;BME280;58263;48.146;11.440;2023-10-31T01:31:12;94268.06;;;10.54;87.84
70684;BME280;58263;48.146;11.440;2023-10-31T01:33:37;94277.72;;;10.55;88.49
70684;BME280;58263;48.146;11.440;2023-10-31T01:36:02;94275.53;;;10.52;88.30
70684;BME280;58263;48.146;11.440;2023-10-31T01:38:28;94282.22;;;10.49;88.34
70684;BME280;58263;48.146;11.440;2023-10-31T01:40:53;94279.03;;;10.47;87.67
70684;BME280;58263;48.146;11.440;2023-10-31T01:43:32;94274.47;;;10.48;88.05
70684;BME280;58263;48.146;11.440;2023-10-31T01:45:58;94276.63;;;10.46;87.28
70684;BME280;58263;48.146;11.440;2023-10-31T01:48:24;94270.19;;;10.42;87.37
70684;BME280;58263;48.146;11.440;2023-10-31T01:50:51;94281.69;;;10.42;88.34
70684;BME280;58263;48.146;11.440;2023-10-31T01:53:16;94277.13;;;10.43;88.92
70684;BME280;58263;48.146;11.440;2023-10-31T01:55:42;94276.59;;;10.41;88.22
70684;BME280;58263;48.146;11.440;2023-10-31T01:58:08;94275.28;;;10.43;88.20
70684;BME280;58263;48.146;11.440;2023-10-31T02:00:34;94267.22;;;10.43;87.88
70684;BME280;58263;48.146;11.440;2023-10-31T02:03:01;94266.69;;;10.36;87.83
70684;BME280;58263;48.146;11.440;2023-10-31T02:05:27;94275.25;;;10.38;87.64
70684;BME280;58263;48.146;11.440;2023-10-31T02:07:53;94284.84;;;10.29;87.68
70684;BME280;58263;48.146;11.440;2023-10-31T02:10:19;94285.13;;;10.32;88.30
70684;BME280;58263;48.146;11.440;2023-10-31T02:12:44;94294.25;;;10.31;88.86
70684;BME280;58263;48.146;11.440;2023-10-31T02:15:09;94287.53;;;10.29;88.62
70684;BME280;58263;48.146;11.440;2023-10-31T02:17:35;94295.03;;;10.32;88.24
70684;BME280;58263;48.146;11.440;2023-10-31T02:20:00;94290.75;;;10.31;87.92
70684;BME280;58263;48.146;11.440;2023-10-31T02:22:26;94300.16;;;10.34;88.32
70684;BME280;58263;48.146;11.440;2023-10-31T02:24:51;94302.53;;;10.30;88.54
70684;BME280;58263;48.146;11.440;2023-10-31T02:27:16;94301.47;;;10.26;88.18
70684;BME280;58263;48.146;11.440;2023-10-31T02:29:41;94310.56;;;10.25;87.96
70684;BME280;58263;48.146;11.440;2023-10-31T02:32:07;94317.53;;;10.21;88.16
70684;BME280;58263;48.146;11.440;2023-10-31T02:34:32;94323.94;;;10.20;87.92
70684;BME280;58263;48.146;11.440;2023-10-31T02:36:59;94329.31;;;10.20;88.10
70684;BME280;58263;48.146;11.440;2023-10-31T02:39:25;94326.63;;;10.20;88.37
70684;BME280;58263;48.146;11.440;2023-10-31T02:41:50;94333.84;;;10.14;87.67
70684;BME280;58263;48.146;11.440;2023-10-31T02:44:15;94339.47;;;10.12;88.76
70684;BME280;58263;48.146;11.440;2023-10-31T02:46:40;94333.59;;;10.10;88.73
70684;BME280;58263;48.146;11.440;2023-10-31T02:49:06;94330.88;;;10.05;87.89
70684;BME280;58263;48.146;11.440;2023-10-31T02:51:31;94333.00;;;10.03;88.42
70684;BME280;58263;48.146;11.440;2023-10-31T02:53:56;94330.34;;;10.08;88.67
70684;BME280;58263;48.146;11.440;2023-10-31T02:56:22;94323.94;;;10.09;88.66
70684;BME280;58263;48.146;11.440;2023-10-31T02:58:48;94326.59;;;10.09;88.18
70684;BME280;58263;48.146;11.440;2023-10-31T03:01:13;94319.59;;;10.03;88.30
70684;BME280;58263;48.146;11.440;2023-10-31T03:03:38;94311.31;;;10.05;88.53
70684;BME280;58263;48.146;11.440;2023-10-31T03:06:07;94334.09;;;10.02;88.69
70684;BME280;58263;48.146;11.440;2023-10-31T03:08:32;94339.44;;;10.02;89.15
70684;BME280;58263;48.146;11.440;2023-10-31T03:10:57;94349.06;;;9.98;88.59
70684;BME280;58263;48.146;11.440;2023-10-31T03:13:22;94344.81;;;10.02;88.92
70684;BME280;58263;48.146;11.440;2023-10-31T03:15:48;94337.81;;;10.01;89.16
70684;BME280;58263;48.146;11.440;2023-10-31T03:18:13;94346.13;;;10.00;88.69
70684;BME280;58263;48.146;11.440;2023-10-31T03:20:45;94351.75;;;9.98;88.83
70684;BME280;58263;48.146;11.440;2023-10-31T03:23:12;94344.50;;;9.98;88.42
70684;BME280;58263;48.146;11.440;2023-10-31T03:25:37;94345.88;;;10.01;88.96
70684;BME280;58263;48.146;11.440;2023-10-31T03:28:03;94347.97;;;9.99;87.89
70684;BME280;58263;48.146;11.440;2023-10-31T03:30:28;94344.50;;;9.98;88.30
70684;BME280;58263;48.146;11.440;2023-10-31T03:32:53;94336.47;;;9.98;88.14
70684;BME280;58263;48.146;11.440;2023-10-31T03:35:19;94331.38;;;9.97;87.79
70684;BME280;58263;48.146;11.440;2023-10-31T03:37:44;94334.06;;;9.97;88.46
70684;BME280;58263;48.146;11.440;2023-10-31T03:40:09;94335.16;;;10.01;88.07
70684;BME280;58263;48.146;11.440;2023-10-31T03:42:35;94328.16;;;10.00;88.32
70684;BME280;58263;48.146;11.440;2023-10-31T03:45:00;94342.91;;;10.03;88.29
70684;BME280;58263;48.146;11.440;2023-10-31T03:47:26;94345.88;;;10.01;88.25
70684;BME280;58263;48.146;11.440;2023-10-31T03:49:51;94340.50;;;10.01;89.27
70684;BME280;58263;48.146;11.440;2023-10-31T03:52:16;94337.56;;;10.03;88.31
70684;BME280;58263;48.146;11.440;2023-10-31T03:54:41;94330.31;;;9.98;87.63
70684;BME280;58263;48.146;11.440;2023-10-31T03:57:07;94339.41;;;9.97;87.75
70684;BME280;58263;48.146;11.440;2023-10-31T03:59:32;94351.75;;;9.98;87.65
70684;BME280;58263;48.146;11.440;2023-10-31T04:01:57;94358.19;;;10.02;87.83
70684;BME280;58263;48.146;11.440;2023-10-31T04:04:22;94353.63;;;10.03;87.48
70684;BME280;58263;48.146;11.440;2023-10-31T04:06:48;94352.56;;;10.04;86.96
70684;BME280;58263;48.146;11.440;2023-10-31T04:09:13;94333.81;;;10.04;87.50
70684;BME280;58263;48.146;11.440;2023-10-31T04:11:39;94346.69;;;10.07;87.51
70684;BME280;58263;48.146;11.440;2023-10-31T04:14:04;94359.28;;;10.06;86.90
70684;BME280;58263;48.146;11.440;2023-10-31T04:16:31;94361.66;;;10.03;86.36
70684;BME280;58263;48.146;11.440;2023-10-31T04:18:56;94364.34;;;10.03;86.36
70684;BME280;58263;48.146;11.440;2023-10-31T04:21:21;94360.06;;;10.02;84.80
70684;BME280;58263;48.146;11.440;2023-10-31T04:23:47;94377.44;;;9.99;84.83
70684;BME280;58263;48.146;11.440;2023-10-31T04:26:12;94379.84;;;10.01;85.14
70684;BME280;58263;48.146;11.440;2023-10-31T04:28:37;94391.41;;;10.01;84.83
70684;BME280;58263;48.146;11.440;2023-10-31T04:31:04;94400.22;;;10.02;85.12
70684;BME280;58263;48.146;11.440;2023-10-31T04:33:29;94397.03;;;10.00;85.04
70684;BME280;58263;48.146;11.440;2023-10-31T04:35:55;94395.69;;;10.02;84.54
70684;BME280;58263;48.146;11.440;2023-10-31T04:38:20;94388.72;;;10.01;84.43
70684;BME280;58263;48.146;11.440;2023-10-31T04:40:45;94380.66;;;9.96;85.55
70684;BME280;58263;48.146;11.440;2023-10-31T04:43:10;94382.81;;;9.99;84.97
70684;BME280;58263;48.146;11.440;2023-10-31T04:45:36;94372.91;;;10.00;84.87
70684;BME280;58263;48.146;11.440;2023-10-31T04:48:01;94377.44;;;9.99;85.12
70684;BME280;58263;48.146;11.440;2023-10-31T04:50:26;94370.25;;;10.00;85.54
70684;BME280;58263;48.146;11.440;2023-10-31T04:52:52;94376.38;;;10.00;84.81
70684;BME280;58263;48.146;11.440;2023-10-31T04:55:17;94383.09;;;10.03;85.55
70684;BME280;58263;48.146;11.440;2023-10-31T04:57:43;94382.84;;;10.04;85.61
70684;BME280;58263;48.146;11.440;2023-10-31T05:00:09;94378.53;;;10.03;85.36
70684;BME280;58263;48.146;11.440;2023-10-31T05:02:34;94379.63;;;10.02;85.47
70684;BME280;58263;48.146;11.440;2023-10-31T05:04:59;94388.72;;;10.01;85.24
70684;BME280;58263;48.146;11.440;2023-10-31T05:07:25;94396.19;;;9.99;85.01
70684;BME280;58263;48.146;11.440;2023-10-31T05:09:50;94396.19;;;9.99;84.82
70684;BME280;58263;48.146;11.440;2023-10-31T05:12:15;94390.31;;;9.97;85.49
70684;BME280;58263;48.146;11.440;2023-10-31T05:14:41;94401.56;;;9.99;85.83
70684;BME280;58263;48.146;11.440;2023-10-31T05:17:06;94405.06;;;10.00;84.24
70684;BME280;58263;48.146;11.440;2023-10-31T05:19:31;94406.38;;;9.97;85.06
70684;BME280;58263;48.146;11.440;2023-10-31T05:21:59;94421.63;;;9.91;84.80
70684;BME280;58263;48.146;11.440;2023-10-31T05:24:25;94417.34;;;9.95;84.80
70684;BME280;58263;48.146;11.440;2023-10-31T05:26:50;94412.53;;;9.97;85.06
70684;BME280;58263;48.146;11.440;2023-10-31T05:29:15;94422.19;;;9.98;85.04
70684;BME280;58263;48.146;11.440;2023-10-31T05:31:41;94420.03;;;9.95;85.43
70684;BME280;58263;48.146;11.440;2023-10-31T05:34:06;94438.50;;;9.92;84.87
70684;BME280;58263;48.146;11.440;2023-10-31T05:36:32;94443.31;;;9.90;85.19
70684;BME280;58263;48.146;11.440;2023-10-31T05:38:57;94436.88;;;9.91;85.38
70684;BME280;58263;48.146;11.440;2023-10-31T05:41:22;94441.16;;;9.92;85.25
70684;BME280;58263;48.146;11.440;2023-10-31T05:43:48;94442.00;;;9.97;85.16
70684;BME280;58263;48.146;11.440;2023-10-31T05:46:13;94448.19;;;9.98;86.15
70684;BME280;58263;48.146;11.440;2023-10-31T05:48:44;94455.13;;;9.99;86.83
70684;BME280;58263;48.146;11.440;2023-10-31T05:51:19;94451.97;;;10.02;86.48
70684;BME280;58263;48.146;11.440;2023-10-31T05:53:46;94455.38;;;9.97;86.19
70684;BME280;58263;48.146;11.440;2023-10-31T05:56:13;94454.06;;;10.00;85.71
70684;BME280;58263;48.146;11.440;2023-10-31T05:58:40;94458.06;;;9.97;85.28
70684;BME280;58263;48.146;11.440;2023-10-31T06:01:05;94465.00;;;9.93;85.04
70684;BME280;58263;48.146;11.440;2023-10-31T06:03:31;94463.69;;;9.96;85.35
70684;BME280;58263;48.146;11.440;2023-10-31T06:05:57;94467.16;;;9.96;86.32
70684;BME280;58263;48.146;11.440;2023-10-31T06:08:22;94467.16;;;9.96;85.39
70684;BME280;58263;48.146;11.440;2023-10-31T06:10:50;94477.13;;;10.01;85.21
70684;BME280;58263;48.146;11.440;2023-10-31T06:13:16;94474.97;;;9.98;85.32
70684;BME280;58263;48.146;11.440;2023-10-31T06:15:41;94476.56;;;9.99;85.22
70684;BME280;58263;48.146;11.440;2023-10-31T06:18:06;94476.56;;;9.99;85.51
70684;BME280;58263;48.146;11.440;2023-10-31T06:20:31;94479.25;;;9.99;85.31
70684;BME280;58263;48.146;11.440;2023-10-31T06:22:59;94479.81;;;10.01;85.52
70684;BME280;58263;48.146;11.440;2023-10-31T06:25:24;94478.75;;;10.02;85.43
70684;BME280;58263;48.146;11.440;2023-10-31T06:27:49;94479.50;;;9.97;85.35
70684;BME280;58263;48.146;11.440;2023-10-31T06:30:15;94496.41;;;9.98;85.58
70684;BME280;58263;48.146;11.440;2023-10-31T06:32:40;94508.72;;;9.99;86.68
70684;BME280;58263;48.146;11.440;2023-10-31T06:35:06;94497.50;;;10.02;85.94
70684;BME280;58263;48.146;11.440;2023-10-31T06:37:32;94492.63;;;9.99;85.31
70684;BME280;58263;48.146;11.440;2023-10-31T06:39:57;94499.09;;;10.03;85.88
70684;BME280;58263;48.146;11.440;2023-10-31T06:42:22;94495.34;;;10.04;86.10
70684;BME280;58263;48.146;11.440;2023-10-31T06:44:47;94490.78;;;10.05;85.45
70684;BME280;58263;48.146;11.440;2023-10-31T06:47:13;94494.28;;;10.05;85.99
70684;BME280;58263;48.146;11.440;2023-10-31T06:49:38;94495.34;;;10.04;84.86
70684;BME280;58263;48.146;11.440;2023-10-31T06:52:04;94505.53;;;10.07;85.81
70684;BME280;58263;48.146;11.440;2023-10-31T06:54:29;94513.06;;;10.05;85.00
70684;BME280;58263;48.146;11.440;2023-10-31T06:56:56;94513.06;;;10.05;84.64
70684;BME280;58263;48.146;11.440;2023-10-31T06:59:22;94518.69;;;10.09;85.23
70684;BME280;58263;48.146;11.440;2023-10-31T07:01:47;94523.72;;;10.00;84.56
70684;BME280;58263;48.146;11.440;2023-10-31T07:04:12;94533.66;;;10.05;84.60
70684;BME280;58263;48.146;11.440;2023-10-31T07:06:39;94536.09;;;10.06;84.92
70684;BME280;58263;48.146;11.440;2023-10-31T07:09:04;94540.94;;;10.09;84.60
70684;BME280;58263;48.146;11.440;2023-10-31T07:11:31;94551.13;;;10.12;83.60
70684;BME280;58263;48.146;11.440;2023-10-31T07:14:01;94546.59;;;10.13;83.09
70684;BME280;58263;48.146;11.440;2023-10-31T07:16:27;94553.28;;;10.10;82.27
70684;BME280;58263;48.146;11.440;2023-10-31T07:18:52;94554.28;;;10.04;80.89
70684;BME280;58263;48.146;11.440;2023-10-31T07:21:18;94543.34;;;10.11;80.97
70684;BME280;58263;48.146;11.440;2023-10-31T07:23:43;94546.34;;;10.14;80.97
70684;BME280;58263;48.146;11.440;2023-10-31T07:26:11;94540.16;;;10.14;81.03
70684;BME280;58263;48.146;11.440;2023-10-31T07:28:36;94536.16;;;10.17;80.36
70684;BME280;58263;48.146;11.440;2023-10-31T07:31:02;94534.03;;;10.19;80.43
70684;BME280;58263;48.146;11.440;2023-10-31T07:33:27;94532.72;;;10.26;81.28
70684;BME280;58263;48.146;11.440;2023-10-31T07:35:52;94522.56;;;10.28;80.45
70684;BME280;58263;48.146;11.440;2023-10-31T07:38:17;94533.56;;;10.32;79.55
70684;BME280;58263;48.146;11.440;2023-10-31T07:40:43;94539.56;;;10.39;78.83
70684;BME280;58263;48.146;11.440;2023-10-31T07:43:08;94544.97;;;10.49;79.38
70684;BME280;58263;48.146;11.440;2023-10-31T07:45:33;94535.34;;;10.54;79.25
70684;BME280;58263;48.146;11.440;2023-10-31T07:47:59;94551.72;;;10.57;78.64
70684;BME280;58263;48.146;11.440;2023-10-31T07:50:24;94550.41;;;10.60;78.59
70684;BME280;58263;48.146;11.440;2023-10-31T07:52:49;94556.84;;;10.64;78.53
70684;BME280;58263;48.146;11.440;2023-10-31T07:55:14;94561.69;;;10.67;77.24
70684;BME280;58263;48.146;11.440;2023-10-31T07:57:40;94556.28;;;10.62;76.63
70684;BME280;58263;48.146;11.440;2023-10-31T08:00:11;94556.84;;;10.64;76.67
70684;BME280;58263;48.146;11.440;2023-10-31T08:02:37;94549.88;;;10.63;77.13
70684;BME280;58263;48.146;11.440;2023-10-31T08:05:02;94550.94;;;10.62;77.09
70684;BME280;58263;48.146;11.440;2023-10-31T08:07:27;94544.50;;;10.63;76.96
70684;BME280;58263;48.146;11.440;2023-10-31T08:09:55;94530.03;;;10.64;76.91
70684;BME280;58263;48.146;11.440;2023-10-31T08:12:21;94525.75;;;10.68;76.24
70684;BME280;58263;48.146;11.440;2023-10-31T08:14:46;94526.06;;;10.72;75.57
70684;BME280;58263;48.146;11.440;2023-10-31T08:17:11;94544.28;;;10.70;75.28
70684;BME280;58263;48.146;11.440;2023-10-31T08:19:39;94548.84;;;10.74;75.53
70684;BME280;58263;48.146;11.440;2023-10-31T08:22:04;94567.63;;;10.74;75.00
70684;BME280;58263;48.146;11.440;2023-10-31T08:24:29;94568.97;;;10.77;74.84
70684;BME280;58263;48.146;11.440;2023-10-31T08:26:54;94574.59;;;10.75;74.55
70684;BME280;58263;48.146;11.440;2023-10-31T08:29:20;94582.69;;;10.80;75.27
70684;BME280;58263;48.146;11.440;2023-10-31T08:31:45;94606.31;;;10.89;76.37
70684;BME280;58263;48.146;11.440;2023-10-31T08:34:10;94620.81;;;10.88;74.06
70684;BME280;58263;48.146;11.440;2023-10-31T08:36:36;94633.16;;;10.89;74.46
70684;BME280;58263;48.146;11.440;2023-10-31T08:39:01;94646.03;;;10.87;74.53
70684;BME280;58263;48.146;11.440;2023-10-31T08:41:27;94661.59;;;10.90;74.76
70684;BME280;58263;48.146;11.440;2023-10-31T08:43:52;94674.47;;;10.88;74.27
70684;BME280;58263;48.146;11.440;2023-10-31T08:46:17;94674.19;;;10.84;73.29
70684;BME280;58263;48.146;11.440;2023-10-31T08:48:43;94671.25;;;10.86;73.77
70684;BME280;58263;48.146;11.440;2023-10-31T08:51:08;94656.47;;;10.83;73.41
70684;BME280;58263;48.146;11.440;2023-10-31T08:53:34;94656.75;;;10.87;73.33
70684;BME280;58263;48.146;11.440;2023-10-31T08:55:59;94669.94;;;10.93;74.22
70684;BME280;58263;48.146;11.440;2023-10-31T08:58:25;94667.53;;;10.97;74.02
70684;BME280;58263;48.146;11.440;2023-10-31T09:00:50;94674.84;;;11.02;73.75
70684;BME280;58263;48.146;11.440;2023-10-31T09:03:15;94674.84;;;11.02;73.51
70684;BME280;58263;48.146;11.440;2023-10-31T09:05:40;94672.16;;;11.07;73.32
70684;BME280;58263;48.146;11.440;2023-10-31T09:08:06;94671.91;;;11.13;74.32
70684;BME280;58263;48.146;11.440;2023-10-31T09:10:32;94671.41;;;11.16;73.79
70684;BME280;58263;48.146;11.440;2023-10-31T09:12:57;94678.63;;;11.11;73.52
70684;BME280;58263;48.146;11.440;2023-10-31T09:15:23;94690.72;;;11.13;73.74
70684;BME280;58263;48.146;11.440;2023-10-31T09:17:48;94675.16;;;11.15;72.54
70684;BME280;58263;48.146;11.440;2023-10-31T09:20:13;94678.69;;;11.21;73.16
70684;BME280;58263;48.146;11.440;2023-10-31T09:22:39;94689.41;;;11.21;72.85
70684;BME280;58263;48.146;11.440;2023-10-31T09:25:04;94691.28;;;11.21;72.90
70684;BME280;58263;48.146;11.440;2023-10-31T09:27:29;94684.84;;;11.22;72.77
70684;BME280;58263;48.146;11.440;2023-10-31T09:29:55;94690.78;;;11.24;73.04
70684;BME280;58263;48.146;11.440;2023-10-31T09:32:20;94700.16;;;11.21;72.70
70684;BME280;58263;48.146;11.440;2023-10-31T09:34:45;94697.72;;;11.20;72.53
70684;BME280;58263;48.146;11.440;2023-10-31T09:37:11;94696.66;;;11.21;72.21
70684;BME280;58263;48.146;11.440;2023-10-31T09:39:36;94690.25;;;11.27;73.13
70684;BME280;58263;48.146;11.440;2023-10-31T09:42:02;94697.78;;;11.30;72.88
70684;BME280;58263;48.146;11.440;2023-10-31T09:44:27;94709.34;;;11.30;72.27
70684;BME280;58263;48.146;11.440;2023-10-31T09:46:53;94709.91;;;11.38;72.51
70684;BME280;58263;48.146;11.440;2023-10-31T09:49:20;94716.56;;;11.30;71.91
70684;BME280;58263;48.146;11.440;2023-10-31T09:51:46;94719.25;;;11.30;71.54
70684;BME280;58263;48.146;11.440;2023-10-31T09:54:12;94708.28;;;11.37;72.46
70684;BME280;58263;48.146;11.440;2023-10-31T09:56:41;94697.84;;;11.40;72.04
70684;BME280;58263;48.146;11.440;2023-10-31T09:59:07;94691.63;;;11.40;71.20
70684;BME280;58263;48.146;11.440;2023-10-31T10:01:35;94684.72;;;11.44;71.72
70684;BME280;58263;48.146;11.440;2023-10-31T10:04:01;94688.97;;;11.45;71.63
70684;BME280;58263;48.146;11.440;2023-10-31T10:06:26;94691.94;;;11.43;70.72
70684;BME280;58263;48.146;11.440;2023-10-31T10:08:52;94701.63;;;11.44;71.85
70684;BME280;58263;48.146;11.440;2023-10-31T10:11:17;94705.38;;;11.48;71.52
70684;BME280;58263;48.146;11.440;2023-10-31T10:13:43;94715.59;;;11.52;71.64
70684;BME280;58263;48.146;11.440;2023-10-31T10:16:09;94726.91;;;11.54;71.19
70684;BME280;58263;48.146;11.440;2023-10-31T10:18:35;94736.56;;;11.49;70.65
70684;BME280;58263;48.146;11.440;2023-10-31T10:21:05;94728.50;;;11.55;71.02
70684;BME280;58263;48.146;11.440;2023-10-31T10:23:31;94732.84;;;11.61;70.67
70684;BME280;58263;48.146;11.440;2023-10-31T10:25:58;94739.00;;;11.61;69.94
70684;BME280;58263;48.146;11.440;2023-10-31T10:28:24;94737.19;;;11.67;71.10
70684;BME280;58263;48.146;11.440;2023-10-31T10:30:51;94741.22;;;11.75;70.69
70684;BME280;58263;48.146;11.440;2023-10-31T10:33:17;94745.78;;;11.74;70.80
70684;BME280;58263;48.146;11.440;2023-10-31T10:35:43;94742.03;;;11.75;69.08
70684;BME280;58263;48.146;11.440;2023-10-31T10:38:14;94742.59;;;11.82;69.13
70684;BME280;58263;48.146;11.440;2023-10-31T10:40:45;94743.16;;;11.90;69.22
70684;BME280;58263;48.146;11.440;2023-10-31T10:43:21;94742.94;;;11.96;68.38
70684;BME280;58263;48.146;11.440;2023-10-31T10:45:52;94748.31;;;11.96;68.49
70684;BME280;58263;48.146;11.440;2023-10-31T10:48:19;94745.66;;;12.07;68.66
70684;BME280;58263;48.146;11.440;2023-10-31T10:50:51;94746.44;;;12.02;67.04
70684;BME280;58263;48.146;11.440;2023-10-31T10:53:24;94746.22;;;12.14;67.83
70684;BME280;58263;48.146;11.440;2023-10-31T10:56:02;94750.28;;;12.22;67.67
70684;BME280;58263;48.146;11.440;2023-10-31T10:58:37;94737.66;;;12.27;67.21
70684;BME280;58263;48.146;11.440;2023-10-31T11:01:06;94732.81;;;12.34;67.40
70684;BME280;58263;48.146;11.440;2023-10-31T11:03:33;94729.31;;;12.39;66.31
70684;BME280;58263;48.146;11.440;2023-10-31T11:05:59;94731.47;;;12.47;67.75
70684;BME280;58263;48.146;11.440;2023-10-31T11:08:25;94733.66;;;12.56;66.52
70684;BME280;58263;48.146;11.440;2023-10-31T11:10:52;94737.97;;;12.62;66.50
70684;BME280;58263;48.146;11.440;2023-10-31T11:13:19;94735.53;;;12.71;66.09
70684;BME280;58263;48.146;11.440;2023-10-31T11:15:46;94735.53;;;12.76;66.06
70684;BME280;58263;48.146;11.440;2023-10-31T11:18:12;94732.31;;;12.89;66.51
70684;BME280;58263;48.146;11.440;2023-10-31T11:20:39;94736.91;;;12.89;64.97
70684;BME280;58263;48.146;11.440;2023-10-31T11:23:04;94727.72;;;12.90;64.69
70684;BME280;58263;48.146;11.440;2023-10-31T11:25:32;94735.81;;;13.00;64.65
70684;BME280;58263;48.146;11.440;2023-10-31T11:28:11;94716.97;;;13.00;64.15
70684;BME280;58263;48.146;11.440;2023-10-31T11:30:36;94722.34;;;13.00;63.79
70684;BME280;58263;48.146;11.440;2023-10-31T11:33:02;94726.09;;;13.14;63.91
70684;BME280;58263;48.146;11.440;2023-10-31T11:35:33;94717.44;;;13.28;64.01
70684;BME280;58263;48.146;11.440;2023-10-31T11:38:03;94725.28;;;13.29;62.24
70684;BME280;58263;48.146;11.440;2023-10-31T11:40:32;94724.19;;;13.46;62.80
70684;BME280;58263;48.146;11.440;2023-10-31T11:43:00;94726.31;;;13.44;62.58
70684;BME280;58263;48.146;11.440;2023-10-31T11:45:34;94724.41;;;13.55;61.94
70684;BME280;58263;48.146;11.440;2023-10-31T11:48:03;94724.91;;;13.62;62.09
70684;BME280;58263;48.146;11.440;2023-10-31T11:50:33;94723.84;;;13.63;61.74
70684;BME280;58263;48.146;11.440;2023-10-31T11:53:16;94721.66;;;13.70;61.45
70684;BME280;58263;48.146;11.440;2023-10-31T11:55:46;94716.81;;;13.72;61.36
70684;BME280;58263;48.146;11.440;2023-10-31T11:58:20;94716.81;;;13.72;62.15
70684;BME280;58263;48.146;11.440;2023-10-31T12:00:47;94713.53;;;13.80;62.54
70684;BME280;58263;48.146;11.440;2023-10-31T12:03:15;94711.34;;;13.88;62.53
70684;BME280;58263;48.146;11.440;2023-10-31T12:05:50;94715.72;;;13.73;60.62
70684;BME280;58263;48.146;11.440;2023-10-31T12:08:24;94716.81;;;13.72;61.02
70684;BME280;58263;48.146;11.440;2023-10-31T12:10:50;94717.88;;;13.71;61.52
70684;BME280;58263;48.146;11.440;2023-10-31T12:13:15;94711.69;;;13.76;61.61
70684;BME280;58263;48.146;11.440;2023-10-31T12:15:51;94710.34;;;13.68;61.18
70684;BME280;58263;48.146;11.440;2023-10-31T12:18:17;94714.13;;;13.67;61.49
70684;BME280;58263;48.146;11.440;2023-10-31T12:20:47;94712.97;;;13.89;61.13
70684;BME280;58263;48.146;11.440;2023-10-31T12:23:13;94709.16;;;13.95;61.25
70684;BME280;58263;48.146;11.440;2023-10-31T12:25:48;94719.41;;;13.98;61.49
70684;BME280;58263;48.146;11.440;2023-10-31T12:28:18;94712.38;;;14.02;61.20
70684;BME280;58263;48.146;11.440;2023-10-31T12:30:45;94708.59;;;13.98;60.79
70684;BME280;58263;48.146;11.440;2023-10-31T12:33:14;94722.91;;;13.93;61.18
70684;BME280;58263;48.146;11.440;2023-10-31T12:35:40;94707.38;;;13.75;60.34
70684;BME280;58263;48.146;11.440;2023-10-31T12:38:07;94714.09;;;13.77;61.06
70684;BME280;58263;48.146;11.440;2023-10-31T12:40:34;94711.41;;;13.72;61.61
70684;BME280;58263;48.146;11.440;2023-10-31T12:42:59;94713.63;;;13.60;61.88
70684;BME280;58263;48.146;11.440;2023-10-31T12:45:26;94714.72;;;13.53;62.74
70684;BME280;58263;48.146;11.440;2023-10-31T12:48:05;94723.63;;;13.39;62.85